sensor_id;sensor_type;location;lat;lon;timestamp;P1;durP1;ratioP1;P2;durP2;ratioP2
70075;SDS011;63241;51.056;3.698;2023-03-11T08:23:41;10.98;;;6.35;;
70075;SDS011;63241;51.056;3.698;2023-03-11T08:26:11;18.80;;;5.60;;
70075;SDS011;63241;51.056;3.698;2023-03-11T08:28:41;10.15;;;3.80;;
70075;SDS011;63241;51.056;3.698;2023-03-11T08:31:17;9.48;;;4.03;;
70075;SDS011;63241;51.056;3.698;2023-03-11T08:33:42;12.20;;;4.10;;
70075;SDS011;63241;51.056;3.698;2023-03-11T08:36:11;8.88;;;4.62;;
70075;SDS011;63241;51.056;3.698;2023-03-11T08:38:39;10.00;;;3.60;;
70075;SDS011;63241;51.056;3.698;2023-03-11T08:41:06;8.90;;;3.87;;
70075;SDS011;63241;51.056;3.698;2023-03-11T08:49:00;12.20;;;4.05;;
70075;SDS011;63241;51.056;3.698;2023-03-11T08:51:29;9.90;;;4.55;;
70075;SDS011;63241;51.056;3.698;2023-03-11T08:53:59;8.98;;;3.35;;
70075;SDS011;63241;51.056;3.698;2023-03-11T08:56:28;9.10;;;3.27;;
70075;SDS011;63241;51.056;3.698;2023-03-11T09:02:30;13.98;;;6.30;;
70075;SDS011;63241;51.056;3.698;2023-03-11T09:05:02;9.80;;;4.50;;
70075;SDS011;63241;51.056;3.698;2023-03-11T09:07:30;12.18;;;7.20;;
70075;SDS011;63241;51.056;3.698;2023-03-11T09:09:58;9.45;;;3.92;;
70075;SDS011;63241;51.056;3.698;2023-03-11T09:12:25;10.70;;;3.55;;
70075;SDS011;63241;51.056;3.698;2023-03-11T09:14:53;13.03;;;3.80;;
70075;SDS011;63241;51.056;3.698;2023-03-11T09:17:21;10.78;;;3.40;;
70075;SDS011;63241;51.056;3.698;2023-03-11T09:19:49;7.45;;;3.10;;
70075;SDS011;63241;51.056;3.698;2023-03-11T09:22:16;6.90;;;2.77;;
70075;SDS011;63241;51.056;3.698;2023-03-11T09:24:44;7.28;;;3.27;;
70075;SDS011;63241;51.056;3.698;2023-03-11T09:27:12;8.65;;;3.10;;
70075;SDS011;63241;51.056;3.698;2023-03-11T09:29:40;8.10;;;2.08;;
70075;SDS011;63241;51.056;3.698;2023-03-11T09:32:11;6.72;;;1.80;;
70075;SDS011;63241;51.056;3.698;2023-03-11T09:34:40;7.95;;;2.90;;
70075;SDS011;63241;51.056;3.698;2023-03-11T09:37:08;7.03;;;2.55;;
70075;SDS011;63241;51.056;3.698;2023-03-11T09:39:35;8.48;;;2.92;;
70075;SDS011;63241;51.056;3.698;2023-03-11T09:44:57;7.87;;;2.37;;
70075;SDS011;63241;51.056;3.698;2023-03-11T09:50:34;9.55;;;2.27;;
70075;SDS011;63241;51.056;3.698;2023-03-11T09:56:02;7.08;;;2.00;;
70075;SDS011;63241;51.056;3.698;2023-03-11T09:58:30;4.37;;;1.65;;
70075;SDS011;63241;51.056;3.698;2023-03-11T10:03:49;5.37;;;1.90;;
70075;SDS011;63241;51.056;3.698;2023-03-11T10:06:23;6.95;;;1.90;;
70075;SDS011;63241;51.056;3.698;2023-03-11T10:17:09;6.15;;;1.72;;
70075;SDS011;63241;51.056;3.698;2023-03-11T10:22:35;8.75;;;2.02;;
70075;SDS011;63241;51.056;3.698;2023-03-11T10:25:19;11.55;;;2.52;;
70075;SDS011;63241;51.056;3.698;2023-03-11T10:27:48;7.03;;;1.80;;
70075;SDS011;63241;51.056;3.698;2023-03-11T10:30:44;7.45;;;2.40;;
70075;SDS011;63241;51.056;3.698;2023-03-11T10:35:59;11.75;;;2.20;;
70075;SDS011;63241;51.056;3.698;2023-03-11T10:38:33;7.40;;;2.52;;
70075;SDS011;63241;51.056;3.698;2023-03-11T10:41:11;11.60;;;2.70;;
70075;SDS011;63241;51.056;3.698;2023-03-11T10:43:34;12.13;;;2.30;;
70075;SDS011;63241;51.056;3.698;2023-03-11T10:46:06;7.87;;;1.80;;
70075;SDS011;63241;51.056;3.698;2023-03-11T10:48:35;6.03;;;1.92;;
70075;SDS011;63241;51.056;3.698;2023-03-11T10:51:10;7.85;;;1.90;;
70075;SDS011;63241;51.056;3.698;2023-03-11T10:53:46;6.65;;;2.12;;
70075;SDS011;63241;51.056;3.698;2023-03-11T10:56:26;6.60;;;2.00;;
70075;SDS011;63241;51.056;3.698;2023-03-11T10:58:59;7.83;;;1.82;;
70075;SDS011;63241;51.056;3.698;2023-03-11T11:01:27;9.55;;;1.50;;
70075;SDS011;63241;51.056;3.698;2023-03-11T11:03:56;9.98;;;2.15;;
70075;SDS011;63241;51.056;3.698;2023-03-11T11:06:27;8.30;;;2.10;;
70075;SDS011;63241;51.056;3.698;2023-03-11T11:09:16;9.15;;;2.30;;
70075;SDS011;63241;51.056;3.698;2023-03-11T11:12:30;7.33;;;1.85;;
70075;SDS011;63241;51.056;3.698;2023-03-11T11:14:49;6.60;;;2.00;;
70075;SDS011;63241;51.056;3.698;2023-03-11T11:17:21;7.05;;;1.72;;
70075;SDS011;63241;51.056;3.698;2023-03-11T11:19:52;8.13;;;1.95;;
70075;SDS011;63241;51.056;3.698;2023-03-11T11:22:23;11.85;;;2.20;;
70075;SDS011;63241;51.056;3.698;2023-03-11T11:24:52;11.80;;;2.12;;
70075;SDS011;63241;51.056;3.698;2023-03-11T11:27:22;6.75;;;1.92;;
70075;SDS011;63241;51.056;3.698;2023-03-11T11:32:37;6.22;;;1.77;;
70075;SDS011;63241;51.056;3.698;2023-03-11T11:35:06;6.97;;;2.05;;
70075;SDS011;63241;51.056;3.698;2023-03-11T11:37:36;4.67;;;1.90;;
70075;SDS011;63241;51.056;3.698;2023-03-11T11:42:56;9.23;;;2.40;;
70075;SDS011;63241;51.056;3.698;2023-03-11T11:45:35;7.15;;;1.90;;
70075;SDS011;63241;51.056;3.698;2023-03-11T11:48:23;8.33;;;1.90;;
70075;SDS011;63241;51.056;3.698;2023-03-11T11:50:58;7.67;;;2.00;;
70075;SDS011;63241;51.056;3.698;2023-03-11T11:53:31;7.25;;;1.90;;
70075;SDS011;63241;51.056;3.698;2023-03-11T11:56:00;9.78;;;2.15;;
70075;SDS011;63241;51.056;3.698;2023-03-11T11:58:29;12.58;;;2.12;;
70075;SDS011;63241;51.056;3.698;2023-03-11T12:01:02;11.03;;;1.82;;
70075;SDS011;63241;51.056;3.698;2023-03-11T12:04:04;7.20;;;1.75;;
70075;SDS011;63241;51.056;3.698;2023-03-11T12:06:44;8.40;;;2.00;;
70075;SDS011;63241;51.056;3.698;2023-03-11T12:15:15;7.97;;;2.40;;
70075;SDS011;63241;51.056;3.698;2023-03-11T12:17:44;6.42;;;1.80;;
70075;SDS011;63241;51.056;3.698;2023-03-11T12:20:24;5.78;;;1.67;;
70075;SDS011;63241;51.056;3.698;2023-03-11T12:28:50;8.30;;;2.55;;
70075;SDS011;63241;51.056;3.698;2023-03-11T12:31:15;9.88;;;2.00;;
70075;SDS011;63241;51.056;3.698;2023-03-11T12:33:59;7.17;;;1.62;;
70075;SDS011;63241;51.056;3.698;2023-03-11T12:36:32;6.90;;;1.80;;
70075;SDS011;63241;51.056;3.698;2023-03-11T12:39:03;5.70;;;1.55;;
70075;SDS011;63241;51.056;3.698;2023-03-11T12:41:34;7.03;;;1.57;;
70075;SDS011;63241;51.056;3.698;2023-03-11T12:49:31;5.58;;;1.50;;
70075;SDS011;63241;51.056;3.698;2023-03-11T12:54:41;7.10;;;1.62;;
70075;SDS011;63241;51.056;3.698;2023-03-11T13:05:59;9.10;;;1.92;;
70075;SDS011;63241;51.056;3.698;2023-03-11T13:08:51;8.98;;;1.82;;
70075;SDS011;63241;51.056;3.698;2023-03-11T13:11:28;7.33;;;1.95;;
70075;SDS011;63241;51.056;3.698;2023-03-11T13:14:09;6.08;;;1.65;;
70075;SDS011;63241;51.056;3.698;2023-03-11T13:16:43;4.08;;;1.15;;
70075;SDS011;63241;51.056;3.698;2023-03-11T13:22:02;8.95;;;1.72;;
70075;SDS011;63241;51.056;3.698;2023-03-11T13:27:08;8.18;;;1.70;;
70075;SDS011;63241;51.056;3.698;2023-03-11T13:29:40;7.22;;;1.90;;
70075;SDS011;63241;51.056;3.698;2023-03-11T13:40:36;7.67;;;1.35;;
70075;SDS011;63241;51.056;3.698;2023-03-11T13:43:19;9.58;;;2.27;;
70075;SDS011;63241;51.056;3.698;2023-03-11T13:45:52;5.62;;;2.00;;
70075;SDS011;63241;51.056;3.698;2023-03-11T14:07:51;7.53;;;2.08;;
70075;SDS011;63241;51.056;3.698;2023-03-11T14:12:50;7.75;;;2.27;;
70075;SDS011;63241;51.056;3.698;2023-03-11T14:15:23;6.03;;;2.02;;
70075;SDS011;63241;51.056;3.698;2023-03-11T14:17:52;10.48;;;3.75;;
70075;SDS011;63241;51.056;3.698;2023-03-11T14:20:22;8.23;;;2.20;;
70075;SDS011;63241;51.056;3.698;2023-03-11T14:22:51;6.37;;;1.85;;
70075;SDS011;63241;51.056;3.698;2023-03-11T14:25:26;7.33;;;2.20;;
70075;SDS011;63241;51.056;3.698;2023-03-11T14:28:01;4.12;;;1.50;;
70075;SDS011;63241;51.056;3.698;2023-03-11T14:30:32;10.75;;;2.52;;
70075;SDS011;63241;51.056;3.698;2023-03-11T14:33:19;8.35;;;2.87;;
70075;SDS011;63241;51.056;3.698;2023-03-11T14:35:51;11.78;;;3.00;;
70075;SDS011;63241;51.056;3.698;2023-03-11T14:38:26;14.98;;;2.98;;
70075;SDS011;63241;51.056;3.698;2023-03-11T14:41:04;8.08;;;2.05;;
70075;SDS011;63241;51.056;3.698;2023-03-11T14:43:33;6.72;;;1.90;;
70075;SDS011;63241;51.056;3.698;2023-03-11T15:31:33;7.62;;;1.70;;
70075;SDS011;63241;51.056;3.698;2023-03-11T16:03:07;12.98;;;4.78;;
70075;SDS011;63241;51.056;3.698;2023-03-11T16:05:35;10.75;;;2.52;;
70075;SDS011;63241;51.056;3.698;2023-03-11T16:13:46;17.02;;;6.10;;
70075;SDS011;63241;51.056;3.698;2023-03-11T16:16:14;9.45;;;2.62;;
70075;SDS011;63241;51.056;3.698;2023-03-11T16:18:42;9.50;;;2.25;;
70075;SDS011;63241;51.056;3.698;2023-03-11T16:24:28;9.13;;;2.37;;
70075;SDS011;63241;51.056;3.698;2023-03-11T16:26:58;9.93;;;1.60;;
70075;SDS011;63241;51.056;3.698;2023-03-11T16:29:25;8.33;;;1.87;;
70075;SDS011;63241;51.056;3.698;2023-03-11T16:31:53;10.48;;;2.77;;
70075;SDS011;63241;51.056;3.698;2023-03-11T16:40:28;12.45;;;3.10;;
70075;SDS011;63241;51.056;3.698;2023-03-11T16:43:03;9.95;;;3.17;;
70075;SDS011;63241;51.056;3.698;2023-03-11T16:45:27;6.15;;;2.25;;
70075;SDS011;63241;51.056;3.698;2023-03-11T16:54:13;11.22;;;2.20;;
70075;SDS011;63241;51.056;3.698;2023-03-11T16:56:41;6.03;;;2.10;;
70075;SDS011;63241;51.056;3.698;2023-03-11T16:59:08;8.55;;;2.42;;
70075;SDS011;63241;51.056;3.698;2023-03-11T17:08:03;9.85;;;2.05;;
70075;SDS011;63241;51.056;3.698;2023-03-11T17:10:38;8.30;;;2.08;;
70075;SDS011;63241;51.056;3.698;2023-03-11T17:13:08;8.05;;;2.05;;
70075;SDS011;63241;51.056;3.698;2023-03-11T17:21:39;14.58;;;3.87;;
70075;SDS011;63241;51.056;3.698;2023-03-11T17:24:07;7.95;;;2.65;;
70075;SDS011;63241;51.056;3.698;2023-03-11T17:26:36;9.43;;;2.83;;
70075;SDS011;63241;51.056;3.698;2023-03-11T17:32:29;8.73;;;2.87;;
70075;SDS011;63241;51.056;3.698;2023-03-11T17:35:03;12.95;;;3.42;;
70075;SDS011;63241;51.056;3.698;2023-03-11T17:37:31;6.97;;;2.12;;
70075;SDS011;63241;51.056;3.698;2023-03-11T17:40:00;7.30;;;2.40;;
70075;SDS011;63241;51.056;3.698;2023-03-11T17:46:28;8.23;;;2.42;;
70075;SDS011;63241;51.056;3.698;2023-03-11T17:48:57;11.83;;;2.20;;
70075;SDS011;63241;51.056;3.698;2023-03-11T17:51:24;7.62;;;2.00;;
70075;SDS011;63241;51.056;3.698;2023-03-11T17:53:54;13.75;;;2.60;;
70075;SDS011;63241;51.056;3.698;2023-03-11T17:56:24;14.83;;;2.58;;
70075;SDS011;63241;51.056;3.698;2023-03-11T17:59:16;11.40;;;2.60;;
70075;SDS011;63241;51.056;3.698;2023-03-11T18:02:09;8.20;;;2.10;;
70075;SDS011;63241;51.056;3.698;2023-03-11T18:04:39;9.40;;;2.58;;
70075;SDS011;63241;51.056;3.698;2023-03-11T18:07:08;11.03;;;2.60;;
70075;SDS011;63241;51.056;3.698;2023-03-11T18:09:38;10.35;;;2.90;;
70075;SDS011;63241;51.056;3.698;2023-03-11T18:15:49;9.10;;;2.35;;
70075;SDS011;63241;51.056;3.698;2023-03-11T18:18:32;9.70;;;2.60;;
70075;SDS011;63241;51.056;3.698;2023-03-11T18:21:07;18.12;;;2.87;;
70075;SDS011;63241;51.056;3.698;2023-03-11T18:23:39;13.00;;;3.77;;
70075;SDS011;63241;51.056;3.698;2023-03-11T18:26:15;9.40;;;3.10;;
70075;SDS011;63241;51.056;3.698;2023-03-11T18:29:03;17.80;;;4.00;;
70075;SDS011;63241;51.056;3.698;2023-03-11T18:31:31;15.78;;;3.27;;
70075;SDS011;63241;51.056;3.698;2023-03-11T18:34:00;11.30;;;2.92;;
70075;SDS011;63241;51.056;3.698;2023-03-11T18:36:30;7.60;;;2.65;;
70075;SDS011;63241;51.056;3.698;2023-03-11T18:45:07;9.23;;;2.98;;
70075;SDS011;63241;51.056;3.698;2023-03-11T18:47:37;12.18;;;2.67;;
70075;SDS011;63241;51.056;3.698;2023-03-11T18:50:05;9.70;;;3.20;;
70075;SDS011;63241;51.056;3.698;2023-03-11T18:55:43;8.43;;;3.30;;
70075;SDS011;63241;51.056;3.698;2023-03-11T18:58:11;13.00;;;4.30;;
70075;SDS011;63241;51.056;3.698;2023-03-11T19:00:39;12.50;;;4.12;;
70075;SDS011;63241;51.056;3.698;2023-03-11T19:03:08;12.73;;;3.90;;
70075;SDS011;63241;51.056;3.698;2023-03-11T19:05:45;18.20;;;4.08;;
70075;SDS011;63241;51.056;3.698;2023-03-11T19:11:37;12.98;;;4.70;;
70075;SDS011;63241;51.056;3.698;2023-03-11T19:14:05;13.43;;;4.05;;
70075;SDS011;63241;51.056;3.698;2023-03-11T19:16:34;15.38;;;5.33;;
70075;SDS011;63241;51.056;3.698;2023-03-11T19:24:55;13.80;;;4.72;;
70075;SDS011;63241;51.056;3.698;2023-03-11T19:27:22;14.60;;;4.30;;
70075;SDS011;63241;51.056;3.698;2023-03-11T19:29:50;14.55;;;3.90;;
70075;SDS011;63241;51.056;3.698;2023-03-11T19:38:10;8.18;;;3.60;;
70075;SDS011;63241;51.056;3.698;2023-03-11T19:40:37;14.80;;;4.37;;
70075;SDS011;63241;51.056;3.698;2023-03-11T19:43:05;13.95;;;4.15;;
70075;SDS011;63241;51.056;3.698;2023-03-11T19:51:44;23.00;;;4.92;;
70075;SDS011;63241;51.056;3.698;2023-03-11T19:54:12;16.52;;;4.30;;
70075;SDS011;63241;51.056;3.698;2023-03-11T19:56:41;11.10;;;4.67;;
70075;SDS011;63241;51.056;3.698;2023-03-11T20:05:16;20.30;;;4.67;;
70075;SDS011;63241;51.056;3.698;2023-03-11T20:07:44;17.50;;;4.85;;
70075;SDS011;63241;51.056;3.698;2023-03-11T20:10:12;16.10;;;5.42;;
70075;SDS011;63241;51.056;3.698;2023-03-11T20:18:48;16.48;;;5.05;;
70075;SDS011;63241;51.056;3.698;2023-03-11T20:23:44;17.40;;;4.97;;
70075;SDS011;63241;51.056;3.698;2023-03-11T20:32:28;14.33;;;4.47;;
70075;SDS011;63241;51.056;3.698;2023-03-11T20:34:56;12.82;;;5.30;;
70075;SDS011;63241;51.056;3.698;2023-03-11T20:37:24;16.30;;;5.00;;
70075;SDS011;63241;51.056;3.698;2023-03-11T20:48:59;13.08;;;5.03;;
70075;SDS011;63241;51.056;3.698;2023-03-11T20:51:27;16.50;;;5.00;;
70075;SDS011;63241;51.056;3.698;2023-03-11T20:53:55;9.30;;;4.72;;
70075;SDS011;63241;51.056;3.698;2023-03-11T21:02:53;15.95;;;5.00;;
70075;SDS011;63241;51.056;3.698;2023-03-11T21:05:21;15.08;;;5.42;;
70075;SDS011;63241;51.056;3.698;2023-03-11T21:07:49;15.78;;;4.92;;
70075;SDS011;63241;51.056;3.698;2023-03-11T21:14:03;15.35;;;5.45;;
70075;SDS011;63241;51.056;3.698;2023-03-11T21:16:31;12.50;;;5.17;;
70075;SDS011;63241;51.056;3.698;2023-03-11T21:18:59;15.20;;;5.35;;
70075;SDS011;63241;51.056;3.698;2023-03-11T21:21:29;16.02;;;5.50;;
70075;SDS011;63241;51.056;3.698;2023-03-11T21:27:50;13.88;;;4.95;;
70075;SDS011;63241;51.056;3.698;2023-03-11T21:30:18;10.80;;;4.85;;
70075;SDS011;63241;51.056;3.698;2023-03-11T21:32:45;17.48;;;5.05;;
70075;SDS011;63241;51.056;3.698;2023-03-11T21:41:26;10.50;;;4.08;;
70075;SDS011;63241;51.056;3.698;2023-03-11T21:43:54;12.07;;;4.30;;
70075;SDS011;63241;51.056;3.698;2023-03-11T21:46:24;11.35;;;4.58;;
70075;SDS011;63241;51.056;3.698;2023-03-11T21:48:55;12.10;;;4.42;;
70075;SDS011;63241;51.056;3.698;2023-03-11T21:55:07;15.63;;;4.33;;
70075;SDS011;63241;51.056;3.698;2023-03-11T21:57:35;17.65;;;5.35;;
70075;SDS011;63241;51.056;3.698;2023-03-11T22:00:03;17.17;;;4.80;;
70075;SDS011;63241;51.056;3.698;2023-03-11T22:08:36;11.75;;;4.20;;
70075;SDS011;63241;51.056;3.698;2023-03-11T22:11:08;9.80;;;4.62;;
70075;SDS011;63241;51.056;3.698;2023-03-11T22:13:39;14.98;;;4.55;;
70075;SDS011;63241;51.056;3.698;2023-03-11T22:22:37;8.77;;;4.20;;
70075;SDS011;63241;51.056;3.698;2023-03-11T22:25:05;12.35;;;4.20;;
70075;SDS011;63241;51.056;3.698;2023-03-11T22:27:33;9.38;;;4.15;;
70075;SDS011;63241;51.056;3.698;2023-03-11T22:30:20;10.45;;;3.37;;
70075;SDS011;63241;51.056;3.698;2023-03-11T22:36:24;13.67;;;3.60;;
70075;SDS011;63241;51.056;3.698;2023-03-11T22:38:52;12.85;;;3.65;;
70075;SDS011;63241;51.056;3.698;2023-03-11T22:41:19;8.80;;;3.12;;
70075;SDS011;63241;51.056;3.698;2023-03-11T22:52:28;11.63;;;3.25;;
70075;SDS011;63241;51.056;3.698;2023-03-11T22:54:56;8.25;;;3.15;;
